Airfield :
LOGIN :

Register | Disclaimer

   EN    FR    IT 

 










Legend :    VFR   Marginal VFR   IFR   Intensive IFR   Very Intensive IFR
Visi :
Ceiling :
>= 8 km
>= 3000ft
5 to 8 km
1000 to 3000 ft
1500m to 5 km
500 to 1000 ft
800 to 1500m
200 to 500 ft
< 800m
< 200 ft
Symbols :   Thunderstorms  Fog  Heavy snow  Heavy precipitations  Wind > 20 kt
SIGMETs :     Misc.  Thunderstorms  Icing  Turbulence  Mountain Waves  Volcanic Ashes






- Airport Elevation : 609 ft
- IATA code : BJZ


LEBZ - Badajoz

CURRENT METAR :
  • 301700Z 04006KT 9999 SCT015 BKN031 BKN037 12/11 Q1007

EXPIRED METARs :
  • 301600Z 04007KT 9999 FEW037 13/11 Q1008

TAF TAF LEBZ
Valid from the 30 at 12:00 until the 31 at 12:00 UTC


301100Z 3012/3112 28005KT 9999 SCT020 BKN030 TX15/3015Z TN08/3107Z
PROB40
TEMPO 3012/3106 4000 RA BKN014
PROB30
TEMPO 3012/3112 SHRA SCT025TCU
BECMG 3018/3020 06010KT



MET'MAP, your aeronautical weather chart ! - Copyright ORBIFLY December 2007 - Disclaimer

ORBIFLY MET'MAP TEAM :

Programming & Development : Alexandra Zaïnal
Concept & original design : Baudouin d'Aumeries
Assistance for programming : Marc-Olivier Méhu
Technical & hardware support : Manuel Goepfert

Contact : metmap@orbifly.com




SOURCES & CREDITS :

   NOAA